Terminal Aerodrome Forecast
Issued by NWS

Home | Current Version | Previous Version | Text Only | Print | Product List | Glossary Off
Versions: 1 2 3 4 5 6 7 8 9 10 11 12 13 14 15 16 17 18 19 20 21 22 23

000
FTUS45 KGGW 220500
TAFOLF
TAF
KOLF 220520Z 2206/2306 VRB04KT P6SM SCT160 WS010/23030KT
     FM221500 VRB06KT P6SM SCT130
     FM221800 25008KT P6SM SCT100
     FM230000 25009KT P6SM BKN120=

USA.gov is the U.S. government's official web portal to all federal, state and local government web resources and services.